Latest Coastal Weather Observations for Koolan Island / Koolan Central

IDW60701

Issued at 9:43 pm WST Monday 4 May 2026 (issued every 10 minutes, with the page automatically refreshed every 10 minutes)

About coastal observations | Map of coastal stations | Coastal observations for WA | Marine services | Other Formats
Station Details ID: 503621 Name: KOOLAN ISLAND (KOOLAN CENTRAL AIRPORT) Lat: -16.12 Lon: 123.74 Height: 163.2 m
Data from the previous 72 hours. | See also: Recent months for locations in Western Australia
Date/Time
WST
Wind Sea
Height
m
Swell Vis
km
Cloud Weather Temp
°C
Press
MSL
hPa
Rain since
9am
mm
Dir  Spd
kts
Gust
kts
Height
m
Period
s
Dir
04/09:30pm SSE 17 23 - - - - 10 - - 29.9 - 0.0
04/09:00pm SSE 16 21 - - - - 10 - - 30.3 - 0.0
04/08:30pm SSE 15 19 - - - - 10 - - 30.6 - 0.0
04/08:00pm S 14 18 - - - - 10 - - 30.6 - 0.0
04/07:30pm SSE 13 16 - - - - 10 - - 30.7 - 0.0
04/07:00pm S 11 14 - - - - 10 - - 30.9 - 0.0
04/06:30pm S 11 15 - - - - 10 - - 31.1 - 0.0
04/06:00pm SSE 11 14 - - - - 10 - - 31.4 - 0.0
04/05:30pm SSE 12 16 - - - - 10 - - 32.1 - 0.0
04/05:00pm SSE 12 16 - - - - 10 - - 32.5 - 0.0
04/04:30pm SSE 13 18 - - - - 10 - - 32.9 - 0.0
04/04:00pm SSE 13 17 - - - - 10 - - 33.3 - 0.0
04/03:30pm SSE 12 16 - - - - 10 - - 33.7 - 0.0
04/03:00pm SSE 12 16 - - - - 10 - - 33.5 - 0.0
04/02:30pm SSE 11 16 - - - - 10 - - 33.6 - 0.0
04/02:00pm SSE 12 16 - - - - 10 - - 33.3 - 0.0
04/01:30pm SSE 12 15 - - - - 10 - - 32.9 - 0.0
04/01:00pm S 9 12 - - - - 10 - - 32.1 - 0.0
04/12:30pm SSE 8 12 - - - - 10 - - 32.0 - 0.0
04/12:00pm S 9 12 - - - - 10 - - 31.0 - 0.0
04/11:30am SSE 7 10 - - - - 10 - - 31.2 - 0.0
04/11:00am SE 9 13 - - - - 10 - - 30.2 - 0.0
04/10:30am SSE 9 12 - - - - 10 - - 30.6 - 0.0
04/10:00am SE 10 14 - - - - 10 - - 29.6 - 0.0
04/09:30am SSE 10 13 - - - - 10 - - 28.2 - 0.0
04/09:00am SSE 12 15 - - - - 10 - - 27.8 - 0.0
04/08:30am SSE 13 16 - - - - 10 Partly cloudy - 27.0 - 0.0
04/08:00am SSE 13 17 - - - - 10 - - 26.9 - 0.0
04/07:30am SSE 15 17 - - - - 10 Partly cloudy - 26.2 - 0.0
04/07:00am SSE 18 21 - - - - 10 Partly cloudy - 26.0 - 0.0
04/06:30am SSE 19 23 - - - - 10 - - 26.0 - 0.0
04/06:00am SSE 18 20 - - - - 10 - - 26.1 - 0.0
04/05:30am SSE 18 22 - - - - 10 - - 26.5 - 0.0
04/05:00am SSE 18 22 - - - - 10 - - 26.9 - 0.0
04/04:30am SSE 17 20 - - - - 10 - - 27.2 - 0.0
04/04:00am SSE 17 20 - - - - 10 - - 27.7 - 0.0
04/03:30am SSE 15 19 - - - - 10 Partly cloudy - 27.8 - 0.0
04/03:00am SSE 15 17 - - - - 10 Partly cloudy - 28.0 - 0.0
04/02:30am SSE 13 16 - - - - 10 Partly cloudy - 28.4 - 0.0
04/02:00am S 11 14 - - - - 10 Partly cloudy - 28.5 - 0.0
04/01:30am SSW 8 10 - - - - 10 Mostly clear - 28.1 - 0.0
04/01:00am SSW 6 8 - - - - 10 Mostly clear - 27.8 - 0.0
04/12:30am SSW 9 12 - - - - 10 Mostly clear - 28.0 - 0.0
04/12:00am SSW 7 10 - - - - 10 Mostly clear - 28.3 - 0.0
 
Date/Time
WST
Wind Sea
Height
m
Swell Vis
km
Cloud Weather Temp
°C
Press
MSL
hPa
Rain since
9am
mm
Dir  Spd
kts
Gust
kts
Height
m
Period
s
Dir
03/11:30pm SW 9 12 - - - - 10 Partly cloudy - 28.9 - 0.0
03/11:00pm SW 6 8 - - - - 10 Partly cloudy - 29.2 - 0.0
03/10:30pm SSW 7 9 - - - - 10 Partly cloudy - 29.2 - 0.0
03/10:00pm SSW 7 9 - - - - 10 - - 29.2 - 0.0
03/09:30pm SSW 7 9 - - - - 10 Mostly clear - 28.8 - 0.0
03/09:00pm SW 5 6 - - - - 10 Mostly clear - 28.7 - 0.0
03/08:30pm SW 5 6 - - - - 10 - - 28.8 - 0.0
03/08:00pm SW 7 7 - - - - 10 - - 28.7 - 0.0
03/07:30pm SW 5 6 - - - - 10 - - 28.8 - 0.0
03/07:00pm SW 3 4 - - - - 10 - - 28.9 - 0.0
03/06:30pm SW 4 6 - - - - 10 - - 29.1 - 0.0
03/06:00pm WSW 7 9 - - - - 10 - - 28.9 - 0.0
03/05:30pm WSW 9 10 - - - - 10 - - 29.0 - 0.0
03/05:00pm W 8 10 - - - - 10 - - 29.2 - 0.0
03/04:30pm W 6 10 - - - - 10 - - 30.1 - 0.0
03/04:00pm WNW 6 9 - - - - 10 - - 30.8 - 0.0
03/03:30pm W 8 12 - - - - 10 - - 30.7 - 0.0
03/03:00pm W 8 10 - - - - 10 - - 30.6 - 0.0
03/02:30pm WNW 5 10 - - - - 10 - - 31.3 - 0.0
03/02:00pm NNW 4 6 - - - - 10 - - 30.9 - 0.0
03/01:30pm NNW 5 8 - - - - 10 - - 30.1 - 0.0
03/01:00pm NNW 6 9 - - - - 10 - - 29.8 - 0.0
03/12:30pm NNE 7 9 - - - - 10 - - 30.3 - 0.0
03/12:00pm NE 6 9 - - - - 10 - - 29.9 - 0.0
03/11:30am ENE 5 9 - - - - 10 - - 30.3 - 0.0
03/11:00am SE 4 8 - - - - 10 - - 30.8 - 0.0
03/10:30am SE 4 7 - - - - 10 - - 30.0 - 0.0
03/10:00am SSE 5 8 - - - - 10 - - 29.9 - 0.0
03/09:30am SE 6 9 - - - - 10 - - 29.4 - 0.0
03/09:00am ESE 5 9 - - - - 10 - - 29.6 - 0.0
03/08:30am SE 6 8 - - - - 10 - - 28.3 - 0.0
03/08:00am SSE 6 7 - - - - 10 - - 27.7 - 0.0
03/07:30am SSE 6 8 - - - - 10 - - 27.2 - 0.0
03/07:00am S 7 9 - - - - 10 - - 26.9 - 0.0
03/06:30am S 7 10 - - - - 10 - - 26.6 - 0.0
03/06:00am S 8 10 - - - - 10 - - 26.6 - 0.0
03/05:30am S 7 9 - - - - 10 - - 26.7 - 0.0
03/05:00am S 7 9 - - - - 10 - - 26.7 - 0.0
03/04:30am SSW 7 9 - - - - 10 Mostly clear - 27.0 - 0.0
03/04:00am SSW 7 10 - - - - 10 Partly cloudy - 27.0 - 0.0
03/03:30am SSW 8 10 - - - - 10 Partly cloudy - 27.0 - 0.0
03/03:00am SSW 8 10 - - - - 10 - - 27.1 - 0.0
03/02:30am SSW 8 10 - - - - 10 - - 27.2 - 0.0
03/02:00am SSW 8 12 - - - - 10 - - 27.4 - 0.0
03/01:30am SSW 9 12 - - - - 10 - - 27.4 - 0.0
03/01:00am SSW 7 10 - - - - 10 - - 27.2 - 0.0
03/12:30am SSW 9 13 - - - - 10 - - 27.2 - 0.0
03/12:00am SSW 10 14 - - - - 10 - - 27.2 - 0.0
 
Date/Time
WST
Wind Sea
Height
m
Swell Vis
km
Cloud Weather Temp
°C
Press
MSL
hPa
Rain since
9am
mm
Dir  Spd
kts
Gust
kts
Height
m
Period
s
Dir
02/11:30pm SSW 7 10 - - - - 10 - - 27.4 - 0.0
02/11:00pm SW 9 13 - - - - 10 - - 27.5 - 0.0
02/10:30pm SW 11 16 - - - - 10 - - 27.6 - 0.0
02/10:00pm SW 9 12 - - - - 10 - - 27.6 - 0.0
02/09:30pm SW 10 13 - - - - 10 - - 27.6 - 0.0
02/09:00pm SW 9 13 - - - - 10 - - 27.7 - 0.0
02/08:30pm SW 8 9 - - - - 10 - - 28.0 - 0.0
02/08:00pm SW 7 8 - - - - 10 - - 28.0 - 0.0
02/07:30pm SW 7 9 - - - - 10 - - 28.2 - 0.0
02/07:00pm SW 7 9 - - - - 10 - - 28.5 - 0.0
02/06:30pm SW 7 9 - - - - 10 - - 28.7 - 0.0
02/06:00pm SW 7 9 - - - - 10 - - 29.0 - 0.0
02/05:30pm WSW 7 9 - - - - 10 - - 29.3 - 0.0
02/05:00pm WSW 9 11 - - - - 10 - - 29.5 - 0.0
02/04:30pm WSW 9 10 - - - - 10 - - 29.9 - 0.0
02/04:00pm WSW 8 10 - - - - 10 - - 29.8 - 0.0
02/03:30pm WSW 8 10 - - - - 10 Mostly clear - 30.2 - 0.0
02/03:00pm WSW 8 10 - - - - 10 - - 30.1 - 0.0
02/02:30pm NW 7 9 - - - - 10 - - 30.7 - 0.0
02/02:00pm W 6 9 - - - - 10 - - 30.8 - 0.0
02/01:30pm W 8 12 - - - - 10 - - 30.0 - 0.0
02/01:00pm NNW 5 8 - - - - 10 - - 29.6 - 0.0
02/12:30pm N 5 8 - - - - 10 - - 30.3 - 0.0
02/12:00pm NNW 5 8 - - - - 10 - - 29.7 - 0.0
02/11:30am ENE 4 6 - - - - 10 - - 29.5 - 0.0
02/11:00am ESE 3 7 - - - - 10 - - 30.1 - 0.0
02/10:30am E 6 9 - - - - 10 - - 29.2 - 0.0
02/10:00am SSE 5 7 - - - - 10 - - 28.7 - 0.0
02/09:30am ESE 4 6 - - - - 10 - - 28.7 - 0.0
02/09:00am SSE 4 6 - - - - 10 - - 28.1 - 0.0
02/08:30am SSE 4 7 - - - - 10 - - 27.5 - 0.0
02/08:00am SSE 7 9 - - - - 10 - - 26.9 - 0.0
02/07:30am SSE 7 8 - - - - 10 - - 26.5 - 0.0
02/07:00am SE 6 8 - - - - 10 - - 26.4 - 0.0
02/06:30am SSE 5 6 - - - - 10 - - 26.0 - 0.0
02/06:00am SSE 6 7 - - - - 10 - - 26.0 - 0.0
02/05:30am S 6 7 - - - - 10 - - 26.0 - 0.0
02/05:00am S 6 7 - - - - 10 - - 26.0 - 0.0
02/04:30am S 7 9 - - - - 10 - - 26.1 - 0.0
02/04:00am S 6 9 - - - - 10 - - 26.2 - 0.0
02/03:30am S 6 8 - - - - 10 - - 26.3 - 0.0
02/03:00am SSW 7 9 - - - - 10 - - 26.6 - 0.0
02/02:30am S 6 8 - - - - 10 - - 26.6 - 0.0
02/02:00am SSW 5 7 - - - - 10 - - 26.7 - 0.0
02/01:30am SSW 4 7 - - - - 10 - - 26.7 - 0.0
02/01:00am SSW 6 9 - - - - 10 - - 26.9 - 0.0
02/12:30am SSW 7 9 - - - - 10 - - 27.0 - 0.0
02/12:00am SSW 9 11 - - - - 10 - - 27.2 - 0.0
 
Date/Time
WST
Wind Sea
Height
m
Swell Vis
km
Cloud Weather Temp
°C
Press
MSL
hPa
Rain since
9am
mm
Dir  Spd
kts
Gust
kts
Height
m
Period
s
Dir
01/11:30pm SW 6 8 - - - - 10 - - 27.5 - 0.0
01/11:00pm SSW 6 9 - - - - 10 - - 27.6 - 0.0
01/10:30pm SSW 7 9 - - - - 10 - - 27.6 - 0.0
01/10:00pm SSW 6 8 - - - - 10 - - 27.7 - 0.0

Other formats

Comma delimited format used in spreadsheet applications
http://www.bom.gov.au/fwo/IDW60701/IDW60701.99200.axf

JavaScript Object Notation format (JSON) in row-major order
http://www.bom.gov.au/fwo/IDW60701/IDW60701.99200.json

Data quality

Most of these data are generated automatically and are frequently updated. Quality checks on data are not normally performed. It is possible for incorrect values to appear. Refer to information at About Latest Weather Observations and please check the disclaimer before using these data.